Fraser, Michigan
Current Conditions -  °F | °C
As of 6:58 AM on Thursday 27 Nov 2014 (Local Time) from KMTC Reporting Station
Overcast Overcast  
Wind Chill: 20°   Ceiling: 3900
Heat Index: 28°   Visibility: 10mi
Dew Point: 24°   Wind: 7mph
Humidity: 88%   Direction: 290°WNW
Pressure: 30.09"   Gusts: NA
Location:  42.54°N, 82.95°W
Report Text: KMTC 271158Z AUTO 29006KT 10SM BKN039 OVC049 M02/M04 A3009 RMK AO2 SLP200 T10251042 11009 21025 52009
Loading
Personal Weather Stations






























Interactive Weather Map New forecast layout! Learn more

10-Day Weather Forecast

Advertisements
Track Severe Weather on mobile